Time,TemperatureF,DewpointF,PressureIn,WindDirection,WindDirectionDegrees,WindSpeedMPH,WindSpeedGustMPH,Humidity,HourlyPrecipIn,Conditions,Clouds,dailyrainin,SoftwareType,DateUTC
2013-01-04 00:02:00,18.9,13.5,30.28,South,190,9.0,9.0,79,0.00,,,0.00,WeatherCatV1.11B39,2013-01-04 06:02:00,
2013-01-04 00:07:00,18.9,13.5,30.28,SSW,207,2.0,6.0,79,0.00,,,0.00,WeatherCatV1.11B39,2013-01-04 06:07:00,
2013-01-04 00:12:00,19.1,14.0,30.28,South,182,1.0,5.0,80,0.00,,,0.00,WeatherCatV1.11B39,2013-01-04 06:12:00,
2013-01-04 00:17:00,19.1,14.0,30.28,South,190,3.0,3.0,80,0.00,,,0.00,WeatherCatV1.11B39,2013-01-04 06:17:00,
2013-01-04 00:22:00,19.1,14.0,30.28,SSW,207,0.0,4.0,80,0.00,,,0.00,WeatherCatV1.11B39,2013-01-04 06:22:00,
2013-01-04 00:27:00,19.1,14.0,30.28,SSW,207,2.0,4.0,80,0.00,,,0.00,WeatherCatV1.11B39,2013-01-04 06:27:00,
2013-01-04 00:32:00,18.9,13.8,30.27,SSW,207,1.0,3.0,80,0.00,,,0.00,WeatherCatV1.11B39,2013-01-04 06:32:00,
2013-01-04 00:37:00,18.9,13.8,30.27,SSW,207,0.0,2.0,80,0.00,,,0.00,WeatherCatV1.11B39,2013-01-04 06:37:00,
2013-01-04 00:42:00,18.9,13.8,30.27,SSW,207,0.0,1.0,80,0.00,,,0.00,WeatherCatV1.11B39,2013-01-04 06:42:00,
2013-01-04 00:47:00,18.9,13.8,30.27,SSW,207,0.0,2.0,80,0.00,,,0.00,WeatherCatV1.11B39,2013-01-04 06:47:00,
2013-01-04 00:52:00,18.8,13.7,30.27,SSW,207,0.0,0.0,80,0.00,,,0.00,WeatherCatV1.11B39,2013-01-04 06:52:00,
2013-01-04 00:57:00,18.6,13.5,30.27,SSW,207,0.0,0.0,80,0.00,,,0.00,WeatherCatV1.11B39,2013-01-04 06:57:00,
2013-01-04 01:02:00,18.4,13.3,30.25,SSW,207,0.0,0.0,80,0.00,,,0.00,WeatherCatV1.11B39,2013-01-04 07:02:00,
2013-01-04 01:07:00,18.3,13.2,30.25,SSW,206,0.0,1.0,80,0.00,,,0.00,WeatherCatV1.11B39,2013-01-04 07:07:00,
2013-01-04 01:12:00,18.1,13.0,30.25,SSW,206,0.0,2.0,80,0.00,,,0.00,WeatherCatV1.11B39,2013-01-04 07:12:00,
2013-01-04 01:17:00,18.1,13.0,30.25,SSW,206,1.0,3.0,80,0.00,,,0.00,WeatherCatV1.11B39,2013-01-04 07:17:00,
2013-01-04 01:22:00,18.1,13.3,30.25,SSW,205,1.0,4.0,81,0.00,,,0.00,WeatherCatV1.11B39,2013-01-04 07:22:00,
2013-01-04 01:27:00,18.1,13.3,30.25,SSW,205,0.0,3.0,81,0.00,,,0.00,WeatherCatV1.11B39,2013-01-04 07:27:00,
2013-01-04 01:32:00,18.3,13.5,30.24,SSW,205,0.0,2.0,81,0.00,,,0.00,WeatherCatV1.11B39,2013-01-04 07:32:00,
2013-01-04 01:37:00,18.3,13.5,30.24,SSW,205,0.0,0.0,81,0.00,,,0.00,WeatherCatV1.11B39,2013-01-04 07:37:00,
2013-01-04 01:42:00,18.4,13.6,30.24,SSW,205,0.0,0.0,81,0.00,,,0.00,WeatherCatV1.11B39,2013-01-04 07:42:00,
2013-01-04 01:47:00,18.3,13.5,30.24,SSW,205,0.0,0.0,81,0.00,,,0.00,WeatherCatV1.11B39,2013-01-04 07:47:00,
2013-01-04 01:52:00,18.1,13.3,30.24,SSW,205,0.0,0.0,81,0.00,,,0.00,WeatherCatV1.11B39,2013-01-04 07:52:00,
2013-01-04 01:57:00,18.1,13.3,30.24,SSW,205,0.0,0.0,81,0.00,,,0.00,WeatherCatV1.11B39,2013-01-04 07:57:00,
2013-01-04 02:02:00,18.0,13.2,30.24,SSW,205,0.0,0.0,81,0.00,,,0.00,WeatherCatV1.11B39,2013-01-04 08:02:00,
2013-01-04 02:07:00,18.0,13.2,30.24,SSW,205,0.0,0.0,81,0.00,,,0.00,WeatherCatV1.11B39,2013-01-04 08:07:00,
2013-01-04 02:12:00,17.8,13.0,30.24,SSW,205,0.0,0.0,81,0.00,,,0.00,WeatherCatV1.11B39,2013-01-04 08:12:00,
2013-01-04 02:17:00,17.8,13.0,30.24,SSW,205,0.0,0.0,81,0.00,,,0.00,WeatherCatV1.11B39,2013-01-04 08:17:00,
2013-01-04 02:22:00,17.7,12.9,30.24,SSW,205,0.0,0.0,81,0.00,,,0.00,WeatherCatV1.11B39,2013-01-04 08:22:00,
2013-01-04 02:27:00,17.5,12.7,30.24,SSW,205,0.0,0.0,81,0.00,,,0.00,WeatherCatV1.11B39,2013-01-04 08:27:00,
2013-01-04 02:32:00,17.5,12.4,30.24,SSW,205,0.0,0.0,80,0.00,,,0.00,WeatherCatV1.11B39,2013-01-04 08:32:00,
2013-01-04 02:37:00,17.2,12.1,30.24,SSW,205,0.0,0.0,80,0.00,,,0.00,WeatherCatV1.11B39,2013-01-04 08:37:00,
2013-01-04 02:42:00,17.0,11.9,30.24,SSW,205,0.0,0.0,80,0.00,,,0.00,WeatherCatV1.11B39,2013-01-04 08:42:00,
2013-01-04 02:47:00,16.7,11.6,30.24,SSW,205,0.0,0.0,80,0.00,,,0.00,WeatherCatV1.11B39,2013-01-04 08:47:00,
2013-01-04 02:52:00,16.5,11.7,30.24,SSW,205,0.0,0.0,81,0.00,,,0.00,WeatherCatV1.11B39,2013-01-04 08:52:00,
2013-01-04 02:57:00,16.4,11.6,30.24,SSW,205,0.0,0.0,81,0.00,,,0.00,WeatherCatV1.11B39,2013-01-04 08:57:00,
2013-01-04 03:02:00,16.4,11.6,30.24,SSW,205,0.0,0.0,81,0.00,,,0.00,WeatherCatV1.11B39,2013-01-04 09:02:00,
2013-01-04 03:07:00,16.4,11.6,30.24,SSW,205,0.0,0.0,81,0.00,,,0.00,WeatherCatV1.11B39,2013-01-04 09:07:00,
2013-01-04 03:12:00,16.2,11.4,30.24,SSW,205,0.0,0.0,81,0.00,,,0.00,WeatherCatV1.11B39,2013-01-04 09:12:00,
2013-01-04 03:17:00,16.2,11.4,30.24,SSW,205,0.0,0.0,81,0.00,,,0.00,WeatherCatV1.11B39,2013-01-04 09:17:00,
2013-01-04 03:22:00,16.2,11.4,30.24,SSW,205,0.0,0.0,81,0.00,,,0.00,WeatherCatV1.11B39,2013-01-04 09:22:00,
2013-01-04 03:27:00,16.2,11.4,30.24,SSW,205,0.0,0.0,81,0.00,,,0.00,WeatherCatV1.11B39,2013-01-04 09:27:00,
2013-01-04 03:32:00,16.2,11.4,30.24,SSW,205,0.0,0.0,81,0.00,,,0.00,WeatherCatV1.11B39,2013-01-04 09:32:00,
2013-01-04 03:37:00,16.2,11.4,30.24,SSW,205,0.0,0.0,81,0.00,,,0.00,WeatherCatV1.11B39,2013-01-04 09:37:00,
2013-01-04 03:42:00,16.2,11.4,30.24,SSW,205,0.0,0.0,81,0.00,,,0.00,WeatherCatV1.11B39,2013-01-04 09:42:00,
2013-01-04 03:47:00,16.2,11.4,30.24,SSW,205,0.0,0.0,81,0.00,,,0.00,WeatherCatV1.11B39,2013-01-04 09:47:00,
2013-01-04 03:52:00,16.1,11.3,30.24,SSW,205,0.0,0.0,81,0.00,,,0.00,WeatherCatV1.11B39,2013-01-04 09:52:00,
2013-01-04 03:57:00,16.1,11.3,30.24,SSW,205,0.0,1.0,81,0.00,,,0.00,WeatherCatV1.11B39,2013-01-04 09:57:00,
2013-01-04 04:02:00,16.2,11.7,30.24,SSW,205,0.0,0.0,82,0.00,,,0.00,WeatherCatV1.11B39,2013-01-04 10:02:00,
2013-01-04 04:07:00,16.4,11.9,30.24,SSW,205,0.0,0.0,82,0.00,,,0.00,WeatherCatV1.11B39,2013-01-04 10:07:00,
2013-01-04 04:12:00,16.4,11.9,30.24,SSW,205,0.0,0.0,82,0.00,,,0.00,WeatherCatV1.11B39,2013-01-04 10:12:00,
2013-01-04 04:17:00,16.5,12.3,30.23,SSW,205,1.0,1.0,83,0.00,,,0.00,WeatherCatV1.11B39,2013-01-04 10:17:00,
2013-01-04 04:22:00,16.7,12.5,30.23,SSW,205,2.0,2.0,83,0.00,,,0.00,WeatherCatV1.11B39,2013-01-04 10:22:00,
2013-01-04 04:27:00,16.7,12.5,30.23,SSW,205,1.0,2.0,83,0.00,,,0.00,WeatherCatV1.11B39,2013-01-04 10:27:00,
2013-01-04 04:32:00,16.9,12.6,30.22,SSW,205,1.0,2.0,83,0.00,,,0.00,WeatherCatV1.11B39,2013-01-04 10:32:00,
2013-01-04 04:37:00,17.2,13.2,30.22,SSW,202,3.0,5.0,84,0.00,,,0.00,WeatherCatV1.11B39,2013-01-04 10:37:00,
2013-01-04 04:43:00,17.5,13.5,30.22,SSW,201,0.0,2.0,84,0.00,,,0.00,WeatherCatV1.11B39,2013-01-04 10:43:00,
2013-01-04 04:48:00,17.8,13.8,30.22,SSW,201,0.0,3.0,84,0.00,,,0.00,WeatherCatV1.11B39,2013-01-04 10:48:00,
2013-01-04 04:53:00,18.0,14.0,30.22,SSW,201,0.0,3.0,84,0.00,,,0.00,WeatherCatV1.11B39,2013-01-04 10:53:00,
2013-01-04 04:58:00,18.1,14.1,30.22,SSW,201,3.0,3.0,84,0.00,,,0.00,WeatherCatV1.11B39,2013-01-04 10:58:00,
2013-01-04 05:03:00,18.1,14.1,30.22,SSW,201,0.0,1.0,84,0.00,,,0.00,WeatherCatV1.11B39,2013-01-04 11:03:00,
2013-01-04 05:08:00,18.0,13.7,30.22,SSW,201,0.0,1.0,83,0.00,,,0.00,WeatherCatV1.11B39,2013-01-04 11:08:00,
2013-01-04 05:13:00,18.0,13.7,30.22,SSW,201,0.0,1.0,83,0.00,,,0.00,WeatherCatV1.11B39,2013-01-04 11:13:00,
2013-01-04 05:18:00,18.0,13.7,30.22,SSW,201,0.0,1.0,83,0.00,,,0.00,WeatherCatV1.11B39,2013-01-04 11:18:00,
2013-01-04 05:23:00,17.8,13.5,30.22,SSW,201,0.0,0.0,83,0.00,,,0.00,WeatherCatV1.11B39,2013-01-04 11:23:00,
2013-01-04 05:28:00,17.7,13.4,30.22,SSW,201,0.0,0.0,83,0.00,,,0.00,WeatherCatV1.11B39,2013-01-04 11:28:00,
2013-01-04 05:33:00,17.7,13.4,30.21,SSW,201,0.0,0.0,83,0.00,,,0.00,WeatherCatV1.11B39,2013-01-04 11:33:00,
2013-01-04 05:38:00,17.7,13.4,30.21,SSW,201,0.0,0.0,83,0.00,,,0.00,WeatherCatV1.11B39,2013-01-04 11:38:00,
2013-01-04 05:43:00,17.5,13.2,30.21,SSW,201,0.0,0.0,83,0.00,,,0.00,WeatherCatV1.11B39,2013-01-04 11:43:00,
2013-01-04 05:48:00,17.3,12.8,30.21,SSW,201,0.0,0.0,82,0.00,,,0.00,WeatherCatV1.11B39,2013-01-04 11:48:00,
2013-01-04 05:53:00,17.2,12.7,30.21,SSW,201,0.0,1.0,82,0.00,,,0.00,WeatherCatV1.11B39,2013-01-04 11:53:00,
2013-01-04 05:58:00,17.0,12.5,30.21,SSW,201,0.0,0.0,82,0.00,,,0.00,WeatherCatV1.11B39,2013-01-04 11:58:00,
2013-01-04 06:03:00,16.9,12.4,30.22,SSW,201,0.0,0.0,82,0.00,,,0.00,WeatherCatV1.11B39,2013-01-04 12:03:00,
2013-01-04 06:08:00,16.7,12.2,30.22,SSW,201,1.0,2.0,82,0.00,,,0.00,WeatherCatV1.11B39,2013-01-04 12:08:00,
2013-01-04 06:13:00,16.4,11.6,30.22,SSW,201,0.0,2.0,81,0.00,,,0.00,WeatherCatV1.11B39,2013-01-04 12:13:00,
2013-01-04 06:18:00,16.4,11.9,30.21,SSW,200,2.0,3.0,82,0.00,,,0.00,WeatherCatV1.11B39,2013-01-04 12:18:00,
2013-01-04 06:23:00,16.4,11.9,30.21,SSW,200,1.0,3.0,82,0.00,,,0.00,WeatherCatV1.11B39,2013-01-04 12:23:00,
2013-01-04 06:28:00,16.5,12.0,30.21,SSW,200,0.0,2.0,82,0.00,,,0.00,WeatherCatV1.11B39,2013-01-04 12:28:00,
2013-01-04 06:33:00,16.7,12.5,30.21,SSW,200,0.0,3.0,83,0.00,,,0.00,WeatherCatV1.11B39,2013-01-04 12:33:00,
2013-01-04 06:38:00,16.9,12.6,30.21,SSW,200,0.0,1.0,83,0.00,,,0.00,WeatherCatV1.11B39,2013-01-04 12:38:00,
2013-01-04 06:43:00,17.0,12.7,30.21,South,187,2.0,3.0,83,0.00,,,0.00,WeatherCatV1.11B39,2013-01-04 12:43:00,
2013-01-04 06:48:00,17.0,12.7,30.21,South,187,0.0,2.0,83,0.00,,,0.00,WeatherCatV1.11B39,2013-01-04 12:48:00,
2013-01-04 06:53:00,17.2,12.9,30.21,South,184,1.0,2.0,83,0.00,,,0.00,WeatherCatV1.11B39,2013-01-04 12:53:00,
2013-01-04 06:58:00,17.2,12.7,30.21,South,184,2.0,3.0,82,0.00,,,0.00,WeatherCatV1.11B39,2013-01-04 12:58:00,
2013-01-04 07:03:00,17.0,12.5,30.21,South,184,1.0,3.0,82,0.00,,,0.00,WeatherCatV1.11B39,2013-01-04 13:03:00,
2013-01-04 07:08:00,16.9,12.4,30.21,South,184,1.0,3.0,82,0.00,,,0.00,WeatherCatV1.11B39,2013-01-04 13:08:00,
2013-01-04 07:13:00,16.7,12.2,30.21,South,184,1.0,4.0,82,0.00,,,0.00,WeatherCatV1.11B39,2013-01-04 13:13:00,
2013-01-04 07:18:00,16.7,12.2,30.21,South,184,0.0,3.0,82,0.00,,,0.00,WeatherCatV1.11B39,2013-01-04 13:18:00,
2013-01-04 07:23:00,16.7,12.2,30.21,South,184,2.0,3.0,82,0.00,,,0.00,WeatherCatV1.11B39,2013-01-04 13:23:00,
2013-01-04 07:28:00,16.7,12.2,30.21,South,184,0.0,2.0,82,0.00,,,0.00,WeatherCatV1.11B39,2013-01-04 13:28:00,
2013-01-04 07:33:00,16.7,12.2,30.21,South,184,0.0,4.0,82,0.00,,,0.00,WeatherCatV1.11B39,2013-01-04 13:33:00,
2013-01-04 07:38:00,16.9,12.4,30.21,SSW,199,2.0,6.0,82,0.00,,,0.00,WeatherCatV1.11B39,2013-01-04 13:38:00,
2013-01-04 07:43:00,17.0,12.5,30.21,SSW,196,1.0,4.0,82,0.00,,,0.00,WeatherCatV1.11B39,2013-01-04 13:43:00,
2013-01-04 07:48:00,17.2,12.7,30.20,South,184,0.0,3.0,82,0.00,,,0.00,WeatherCatV1.11B39,2013-01-04 13:48:00,
2013-01-04 07:53:00,17.2,12.7,30.20,South,182,3.0,3.0,82,0.00,,,0.00,WeatherCatV1.11B39,2013-01-04 13:53:00,
2013-01-04 07:58:00,17.3,12.8,30.20,South,182,0.0,0.0,82,0.00,,,0.00,WeatherCatV1.11B39,2013-01-04 13:58:00,
2013-01-04 08:03:00,17.3,12.8,30.21,South,182,2.0,5.0,82,0.00,,,0.00,WeatherCatV1.11B39,2013-01-04 14:03:00,
2013-01-04 08:08:00,17.5,13.0,30.21,South,182,0.0,0.0,82,0.00,,,0.00,WeatherCatV1.11B39,2013-01-04 14:08:00,
2013-01-04 08:13:00,17.5,13.0,30.21,South,182,1.0,2.0,82,0.00,,,0.00,WeatherCatV1.11B39,2013-01-04 14:13:00,
2013-01-04 08:18:00,17.7,13.2,30.21,South,182,1.0,4.0,82,0.00,,,0.00,WeatherCatV1.11B39,2013-01-04 14:18:00,
2013-01-04 08:23:00,17.7,13.2,30.21,South,182,0.0,0.0,82,0.00,,,0.00,WeatherCatV1.11B39,2013-01-04 14:23:00,
2013-01-04 08:28:00,17.8,13.3,30.21,South,182,0.0,0.0,82,0.00,,,0.00,WeatherCatV1.11B39,2013-01-04 14:28:00,
2013-01-04 08:33:00,18.3,13.7,30.21,South,182,1.0,2.0,82,0.00,,,0.00,WeatherCatV1.11B39,2013-01-04 14:33:00,
2013-01-04 08:38:00,18.8,14.0,30.21,South,182,5.0,5.0,81,0.00,,,0.00,WeatherCatV1.11B39,2013-01-04 14:38:00,
2013-01-04 08:43:00,19.1,14.2,30.21,SSW,206,0.0,1.0,81,0.00,,,0.00,WeatherCatV1.11B39,2013-01-04 14:43:00,
2013-01-04 08:48:00,19.2,14.1,30.21,SSW,205,0.0,1.0,80,0.00,,,0.00,WeatherCatV1.11B39,2013-01-04 14:48:00,
2013-01-04 08:53:00,19.5,14.4,30.21,SSW,205,1.0,2.0,80,0.00,,,0.00,WeatherCatV1.11B39,2013-01-04 14:53:00,
2013-01-04 08:58:00,19.7,14.0,30.21,South,189,1.0,3.0,78,0.00,,,0.00,WeatherCatV1.11B39,2013-01-04 14:58:00,
2013-01-04 09:03:00,19.7,14.0,30.21,South,176,3.0,6.0,78,0.00,,,0.00,WeatherCatV1.11B39,2013-01-04 15:03:00,
2013-01-04 09:08:00,20.0,14.0,30.21,SSW,213,2.0,6.0,77,0.00,,,0.00,WeatherCatV1.11B39,2013-01-04 15:08:00,
2013-01-04 09:13:00,20.3,14.3,30.21,SSW,209,0.0,6.0,77,0.00,,,0.00,WeatherCatV1.11B39,2013-01-04 15:13:00,
2013-01-04 09:18:00,20.6,14.3,30.21,South,184,3.0,4.0,76,0.00,,,0.00,WeatherCatV1.11B39,2013-01-04 15:18:00,
2013-01-04 09:23:00,20.8,14.1,30.21,South,185,2.0,6.0,75,0.00,,,0.00,WeatherCatV1.11B39,2013-01-04 15:23:00,
2013-01-04 09:28:00,20.8,14.1,30.21,SSW,192,2.0,3.0,75,0.00,,,0.00,WeatherCatV1.11B39,2013-01-04 15:28:00,
2013-01-04 09:33:00,20.8,13.8,30.21,SW,219,1.0,7.0,74,0.00,,,0.00,WeatherCatV1.11B39,2013-01-04 15:33:00,
2013-01-04 09:38:00,21.0,14.0,30.21,SSW,203,1.0,4.0,74,0.00,,,0.00,WeatherCatV1.11B39,2013-01-04 15:38:00,
2013-01-04 09:43:00,21.6,14.6,30.21,SSW,205,0.0,1.0,74,0.00,,,0.00,WeatherCatV1.11B39,2013-01-04 15:43:00,
2013-01-04 09:48:00,21.9,14.3,30.21,SSW,205,2.0,6.0,72,0.00,,,0.00,WeatherCatV1.11B39,2013-01-04 15:48:00,
2013-01-04 09:53:00,22.2,14.6,30.21,SSW,204,0.0,3.0,72,0.00,,,0.00,WeatherCatV1.11B39,2013-01-04 15:53:00,
2013-01-04 09:58:00,22.4,14.4,30.21,SSW,204,0.0,3.0,71,0.00,,,0.00,WeatherCatV1.11B39,2013-01-04 15:58:00,
2013-01-04 10:03:00,22.7,14.7,30.22,SSW,204,1.0,4.0,71,0.00,,,0.00,WeatherCatV1.11B39,2013-01-04 16:03:00,
2013-01-04 10:08:00,22.7,14.4,30.22,SSW,202,2.0,2.0,70,0.00,,,0.00,WeatherCatV1.11B39,2013-01-04 16:08:00,
2013-01-04 10:13:00,23.0,14.7,30.22,SSW,202,0.0,0.0,70,0.00,,,0.00,WeatherCatV1.11B39,2013-01-04 16:13:00,
2013-01-04 10:18:00,23.2,14.6,30.23,SSW,202,0.0,0.0,69,0.00,,,0.00,WeatherCatV1.11B39,2013-01-04 16:18:00,
2013-01-04 10:23:00,23.5,14.9,30.23,SSW,202,0.0,2.0,69,0.00,,,0.00,WeatherCatV1.11B39,2013-01-04 16:23:00,
2013-01-04 10:28:00,24.1,15.4,30.23,SSW,202,2.0,3.0,69,0.00,,,0.00,WeatherCatV1.11B39,2013-01-04 16:28:00,
2013-01-04 10:33:00,24.5,15.1,30.23,SSW,202,0.0,3.0,67,0.00,,,0.00,WeatherCatV1.11B39,2013-01-04 16:33:00,
2013-01-04 10:38:00,24.7,15.0,30.23,SSW,202,0.0,3.0,66,0.00,,,0.00,WeatherCatV1.11B39,2013-01-04 16:38:00,
2013-01-04 10:43:00,24.7,15.0,30.23,SSW,202,3.0,5.0,66,0.00,,,0.00,WeatherCatV1.11B39,2013-01-04 16:43:00,
2013-01-04 10:48:00,24.7,15.0,30.23,SSW,202,1.0,3.0,66,0.00,,,0.00,WeatherCatV1.11B39,2013-01-04 16:48:00,
2013-01-04 10:53:00,24.8,14.7,30.23,SSW,195,0.0,1.0,65,0.00,,,0.00,WeatherCatV1.11B39,2013-01-04 16:53:00,
2013-01-04 10:58:00,25.0,14.9,30.23,SSW,193,1.0,3.0,65,0.00,,,0.00,WeatherCatV1.11B39,2013-01-04 16:58:00,
2013-01-04 11:03:00,25.1,15.4,30.22,SSW,193,2.0,2.0,66,0.00,,,0.00,WeatherCatV1.11B39,2013-01-04 17:03:00,
2013-01-04 11:08:00,25.6,15.5,30.22,SSW,193,2.0,4.0,65,0.00,,,0.00,WeatherCatV1.11B39,2013-01-04 17:08:00,
2013-01-04 11:13:00,26.0,15.5,30.22,SSW,193,0.0,4.0,64,0.00,,,0.00,WeatherCatV1.11B39,2013-01-04 17:13:00,
2013-01-04 11:18:00,26.3,15.8,30.22,SSW,193,1.0,4.0,64,0.00,,,0.00,WeatherCatV1.11B39,2013-01-04 17:18:00,
2013-01-04 11:23:00,26.7,15.8,30.22,SSW,193,0.0,4.0,63,0.00,,,0.00,WeatherCatV1.11B39,2013-01-04 17:23:00,
2013-01-04 11:28:00,27.2,15.9,30.22,SSW,194,4.0,4.0,62,0.00,,,0.00,WeatherCatV1.11B39,2013-01-04 17:28:00,
2013-01-04 11:33:00,27.6,15.9,30.21,South,173,3.0,5.0,61,0.00,,,0.00,WeatherCatV1.11B39,2013-01-04 17:33:00,
2013-01-04 11:38:00,28.2,16.1,30.21,South,179,2.0,3.0,60,0.00,,,0.00,WeatherCatV1.11B39,2013-01-04 17:38:00,
2013-01-04 11:43:00,28.7,16.2,30.21,South,188,0.0,4.0,59,0.00,,,0.00,WeatherCatV1.11B39,2013-01-04 17:43:00,
2013-01-04 11:48:00,29.1,16.2,30.20,South,178,3.0,5.0,58,0.00,,,0.00,WeatherCatV1.11B39,2013-01-04 17:48:00,
2013-01-04 11:53:00,29.5,16.6,30.20,South,184,0.0,0.0,58,0.00,,,0.00,WeatherCatV1.11B39,2013-01-04 17:53:00,
2013-01-04 11:58:00,30.1,16.3,30.20,South,188,0.0,5.0,56,0.00,,,0.00,WeatherCatV1.11B39,2013-01-04 17:58:00,
2013-01-04 12:03:00,30.6,16.8,30.19,SSW,198,1.0,4.0,56,0.00,,,0.00,WeatherCatV1.11B39,2013-01-04 18:03:00,
2013-01-04 12:08:00,30.6,16.8,30.19,SSW,194,4.0,5.0,56,0.00,,,0.00,WeatherCatV1.11B39,2013-01-04 18:08:00,
2013-01-04 12:13:00,30.9,16.7,30.19,SW,223,1.0,5.0,55,0.00,,,0.00,WeatherCatV1.11B39,2013-01-04 18:13:00,
2013-01-04 12:18:00,31.3,17.0,30.18,South,171,0.0,4.0,55,0.00,,,0.00,WeatherCatV1.11B39,2013-01-04 18:18:00,
2013-01-04 12:23:00,31.6,17.3,30.18,South,188,3.0,4.0,55,0.00,,,0.00,WeatherCatV1.11B39,2013-01-04 18:23:00,
2013-01-04 12:28:00,32.1,16.9,30.18,SSW,198,1.0,3.0,53,0.00,,,0.00,WeatherCatV1.11B39,2013-01-04 18:28:00,
2013-01-04 12:33:00,32.5,17.3,30.17,SW,219,3.0,6.0,53,0.00,,,0.00,WeatherCatV1.11B39,2013-01-04 18:33:00,
2013-01-04 12:38:00,32.8,17.1,30.17,SSW,211,5.0,8.0,52,0.00,,,0.00,WeatherCatV1.11B39,2013-01-04 18:38:00,
2013-01-04 12:43:00,32.9,16.8,30.17,SSW,192,2.0,6.0,51,0.00,,,0.00,WeatherCatV1.11B39,2013-01-04 18:43:00,
2013-01-04 12:48:00,33.2,17.1,30.16,SSW,202,0.0,4.0,51,0.00,,,0.00,WeatherCatV1.11B39,2013-01-04 18:48:00,
2013-01-04 12:53:00,33.5,16.9,30.16,SW,233,1.0,10.0,50,0.00,,,0.00,WeatherCatV1.11B39,2013-01-04 18:53:00,
2013-01-04 12:58:00,33.8,17.2,30.16,SSE,160,7.0,10.0,50,0.00,,,0.00,WeatherCatV1.11B39,2013-01-04 18:58:00,
2013-01-04 13:03:00,34.1,17.4,30.15,South,188,2.0,5.0,50,0.00,,,0.00,WeatherCatV1.11B39,2013-01-04 19:03:00,
2013-01-04 13:08:00,34.6,17.9,30.15,SSW,213,6.0,6.0,50,0.00,,,0.00,WeatherCatV1.11B39,2013-01-04 19:08:00,
2013-01-04 13:13:00,35.0,17.3,30.15,SSW,194,4.0,4.0,48,0.00,,,0.00,WeatherCatV1.11B39,2013-01-04 19:13:00,
2013-01-04 13:18:00,35.3,17.1,30.14,South,182,5.0,10.0,47,0.00,,,0.00,WeatherCatV1.11B39,2013-01-04 19:18:00,
2013-01-04 13:23:00,35.3,17.1,30.14,South,180,4.0,7.0,47,0.00,,,0.00,WeatherCatV1.11B39,2013-01-04 19:23:00,
2013-01-04 13:28:00,35.2,17.0,30.14,SSW,194,5.0,12.0,47,0.00,,,0.00,WeatherCatV1.11B39,2013-01-04 19:28:00,
2013-01-04 13:33:00,35.5,17.8,30.14,South,183,6.0,6.0,48,0.00,,,0.00,WeatherCatV1.11B39,2013-01-04 19:33:00,
2013-01-04 13:38:00,35.9,18.1,30.14,SSW,192,4.0,4.0,48,0.00,,,0.00,WeatherCatV1.11B39,2013-01-04 19:38:00,
2013-01-04 13:43:00,36.2,17.9,30.14,South,186,5.0,5.0,47,0.00,,,0.00,WeatherCatV1.11B39,2013-01-04 19:43:00,
2013-01-04 13:48:00,36.6,18.3,30.13,SSE,156,0.0,6.0,47,0.00,,,0.00,WeatherCatV1.11B39,2013-01-04 19:48:00,
2013-01-04 13:53:00,36.6,17.8,30.13,SSW,206,3.0,6.0,46,0.00,,,0.00,WeatherCatV1.11B39,2013-01-04 19:53:00,
2013-01-04 13:58:00,36.9,18.6,30.13,South,179,2.0,3.0,47,0.00,,,0.00,WeatherCatV1.11B39,2013-01-04 19:58:00,
2013-01-04 14:03:00,37.2,18.3,30.13,South,186,1.0,3.0,46,0.00,,,0.00,WeatherCatV1.11B39,2013-01-04 20:03:00,
2013-01-04 14:08:00,37.5,18.1,30.13,SSW,200,1.0,10.0,45,0.00,,,0.00,WeatherCatV1.11B39,2013-01-04 20:08:00,
2013-01-04 14:13:00,37.8,18.9,30.13,SSE,165,4.0,7.0,46,0.00,,,0.00,WeatherCatV1.11B39,2013-01-04 20:13:00,
2013-01-04 14:18:00,37.9,19.0,30.13,South,188,4.0,4.0,46,0.00,,,0.00,WeatherCatV1.11B39,2013-01-04 20:18:00,
2013-01-04 14:23:00,38.0,18.6,30.13,SSE,161,3.0,4.0,45,0.00,,,0.00,WeatherCatV1.11B39,2013-01-04 20:23:00,
2013-01-04 14:28:00,37.8,18.9,30.13,SSW,193,1.0,5.0,46,0.00,,,0.00,WeatherCatV1.11B39,2013-01-04 20:28:00,
2013-01-04 14:33:00,38.0,19.1,30.12,South,171,4.0,5.0,46,0.00,,,0.00,WeatherCatV1.11B39,2013-01-04 20:33:00,
2013-01-04 14:38:00,38.2,19.3,30.12,South,171,1.0,2.0,46,0.00,,,0.00,WeatherCatV1.11B39,2013-01-04 20:38:00,
2013-01-04 14:43:00,38.5,19.0,30.12,South,173,0.0,4.0,45,0.00,,,0.00,WeatherCatV1.11B39,2013-01-04 20:43:00,
2013-01-04 14:48:00,38.6,18.6,30.12,South,173,0.0,2.0,44,0.00,,,0.00,WeatherCatV1.11B39,2013-01-04 20:48:00,
2013-01-04 14:53:00,38.8,18.2,30.12,South,174,0.0,1.0,43,0.00,,,0.00,WeatherCatV1.11B39,2013-01-04 20:53:00,
2013-01-04 14:58:00,39.1,18.5,30.12,South,175,0.0,3.0,43,0.00,,,0.00,WeatherCatV1.11B39,2013-01-04 20:58:00,
2013-01-04 15:03:00,38.8,17.7,30.11,South,185,0.0,4.0,42,0.00,,,0.00,WeatherCatV1.11B39,2013-01-04 21:03:00,
2013-01-04 15:08:00,38.6,17.5,30.11,South,184,3.0,4.0,42,0.00,,,0.00,WeatherCatV1.11B39,2013-01-04 21:08:00,
2013-01-04 15:13:00,38.6,18.1,30.11,South,184,1.0,2.0,43,0.00,,,0.00,WeatherCatV1.11B39,2013-01-04 21:13:00,
2013-01-04 15:18:00,38.6,18.1,30.12,South,184,0.0,0.0,43,0.00,,,0.00,WeatherCatV1.11B39,2013-01-04 21:18:00,
2013-01-04 15:23:00,38.5,18.0,30.12,South,184,0.0,3.0,43,0.00,,,0.00,WeatherCatV1.11B39,2013-01-04 21:23:00,
2013-01-04 15:28:00,38.5,18.0,30.12,South,184,0.0,1.0,43,0.00,,,0.00,WeatherCatV1.11B39,2013-01-04 21:28:00,
2013-01-04 15:33:00,38.5,18.0,30.11,South,184,0.0,0.0,43,0.00,,,0.00,WeatherCatV1.11B39,2013-01-04 21:33:00,
2013-01-04 15:38:00,38.3,17.8,30.11,South,184,0.0,0.0,43,0.00,,,0.00,WeatherCatV1.11B39,2013-01-04 21:38:00,
2013-01-04 15:43:00,37.8,17.9,30.11,South,184,0.0,0.0,44,0.00,,,0.00,WeatherCatV1.11B39,2013-01-04 21:43:00,
2013-01-04 15:48:00,37.6,18.2,30.11,South,177,3.0,5.0,45,0.00,,,0.00,WeatherCatV1.11B39,2013-01-04 21:48:00,
2013-01-04 15:53:00,37.6,18.7,30.11,South,176,0.0,4.0,46,0.00,,,0.00,WeatherCatV1.11B39,2013-01-04 21:53:00,
2013-01-04 15:58:00,37.8,18.9,30.11,South,171,2.0,4.0,46,0.00,,,0.00,WeatherCatV1.11B39,2013-01-04 21:58:00,
2013-01-04 16:03:00,37.8,18.9,30.12,South,178,1.0,4.0,46,0.00,,,0.00,WeatherCatV1.11B39,2013-01-04 22:03:00,
2013-01-04 16:08:00,37.6,18.7,30.12,South,180,0.0,8.0,46,0.00,,,0.00,WeatherCatV1.11B39,2013-01-04 22:08:00,
2013-01-04 16:13:00,37.5,19.1,30.12,SSE,150,4.0,6.0,47,0.00,,,0.00,WeatherCatV1.11B39,2013-01-04 22:13:00,
2013-01-04 16:18:00,37.2,18.8,30.12,SSE,165,3.0,5.0,47,0.00,,,0.00,WeatherCatV1.11B39,2013-01-04 22:18:00,
2013-01-04 16:23:00,36.9,19.1,30.12,SSE,167,4.0,4.0,48,0.00,,,0.00,WeatherCatV1.11B39,2013-01-04 22:23:00,
2013-01-04 16:28:00,36.6,19.7,30.12,SSE,167,0.0,5.0,50,0.00,,,0.00,WeatherCatV1.11B39,2013-01-04 22:28:00,
2013-01-04 16:33:00,36.2,20.3,30.13,South,184,0.0,9.0,52,0.00,,,0.00,WeatherCatV1.11B39,2013-01-04 22:33:00,
2013-01-04 16:38:00,35.5,21.0,30.13,South,175,3.0,4.0,55,0.00,,,0.00,WeatherCatV1.11B39,2013-01-04 22:38:00,
2013-01-04 16:43:00,34.7,20.6,30.13,SSE,154,6.0,7.0,56,0.00,,,0.00,WeatherCatV1.11B39,2013-01-04 22:43:00,
2013-01-04 16:48:00,33.8,20.6,30.13,South,169,2.0,7.0,58,0.00,,,0.00,WeatherCatV1.11B39,2013-01-04 22:48:00,
2013-01-04 16:53:00,33.2,20.4,30.13,South,175,5.0,13.0,59,0.00,,,0.00,WeatherCatV1.11B39,2013-01-04 22:53:00,
2013-01-04 16:58:00,32.5,20.2,30.13,South,175,4.0,9.0,60,0.00,,,0.00,WeatherCatV1.11B39,2013-01-04 22:58:00,
2013-01-04 17:03:00,32.1,20.2,30.13,SSE,166,6.0,7.0,61,0.00,,,0.00,WeatherCatV1.11B39,2013-01-04 23:03:00,
2013-01-04 17:08:00,31.5,20.0,30.13,SSE,158,1.0,5.0,62,0.00,,,0.00,WeatherCatV1.11B39,2013-01-04 23:08:00,
2013-01-04 17:13:00,31.2,20.1,30.13,SSE,161,2.0,4.0,63,0.00,,,0.00,WeatherCatV1.11B39,2013-01-04 23:13:00,
2013-01-04 17:18:00,30.7,20.0,30.13,SSE,161,0.0,3.0,64,0.00,,,0.00,WeatherCatV1.11B39,2013-01-04 23:18:00,
2013-01-04 17:23:00,30.4,19.7,30.13,SSE,161,0.0,2.0,64,0.00,,,0.00,WeatherCatV1.11B39,2013-01-04 23:23:00,
2013-01-04 17:28:00,30.1,19.4,30.13,SSE,161,0.0,1.0,64,0.00,,,0.00,WeatherCatV1.11B39,2013-01-04 23:28:00,
2013-01-04 17:33:00,30.0,19.3,30.13,SSE,161,1.0,2.0,64,0.00,,,0.00,WeatherCatV1.11B39,2013-01-04 23:33:00,
2013-01-04 17:38:00,29.7,19.0,30.13,SSE,162,3.0,5.0,64,0.00,,,0.00,WeatherCatV1.11B39,2013-01-04 23:38:00,
2013-01-04 17:43:00,29.5,18.8,30.13,SSE,162,0.0,1.0,64,0.00,,,0.00,WeatherCatV1.11B39,2013-01-04 23:43:00,
2013-01-04 17:48:00,29.4,18.8,30.13,SSE,162,0.0,1.0,64,0.00,,,0.00,WeatherCatV1.11B39,2013-01-04 23:48:00,
2013-01-04 17:53:00,29.3,18.7,30.13,SSE,162,0.0,1.0,64,0.00,,,0.00,WeatherCatV1.11B39,2013-01-04 23:53:00,
2013-01-04 17:58:00,29.0,18.4,30.13,SSE,162,0.0,3.0,64,0.00,,,0.00,WeatherCatV1.11B39,2013-01-04 23:58:00,
2013-01-04 18:03:00,28.8,18.2,30.14,SSE,162,0.0,2.0,64,0.00,,,0.00,WeatherCatV1.11B39,2013-01-05 00:03:00,
2013-01-04 18:08:00,28.7,18.1,30.14,SSE,162,0.0,2.0,64,0.00,,,0.00,WeatherCatV1.11B39,2013-01-05 00:08:00,
2013-01-04 18:13:00,28.7,18.1,30.14,SSE,162,2.0,4.0,64,0.00,,,0.00,WeatherCatV1.11B39,2013-01-05 00:13:00,
2013-01-04 18:18:00,28.5,17.9,30.14,SSE,163,0.0,4.0,64,0.00,,,0.00,WeatherCatV1.11B39,2013-01-05 00:18:00,
2013-01-04 18:23:00,28.4,17.8,30.14,SSE,163,0.0,2.0,64,0.00,,,0.00,WeatherCatV1.11B39,2013-01-05 00:23:00,
2013-01-04 18:28:00,28.4,17.8,30.14,SSE,163,1.0,1.0,64,0.00,,,0.00,WeatherCatV1.11B39,2013-01-05 00:28:00,
2013-01-04 18:33:00,28.2,18.0,30.14,SSE,163,1.0,2.0,65,0.00,,,0.00,WeatherCatV1.11B39,2013-01-05 00:33:00,
2013-01-04 18:38:00,28.1,17.9,30.14,SSE,165,3.0,7.0,65,0.00,,,0.00,WeatherCatV1.11B39,2013-01-05 00:38:00,
2013-01-04 18:43:00,28.1,17.9,30.14,South,173,1.0,6.0,65,0.00,,,0.00,WeatherCatV1.11B39,2013-01-05 00:43:00,
2013-01-04 18:48:00,28.1,17.9,30.15,South,173,3.0,3.0,65,0.00,,,0.00,WeatherCatV1.11B39,2013-01-05 00:48:00,
2013-01-04 18:53:00,27.9,17.7,30.15,South,171,0.0,2.0,65,0.00,,,0.00,WeatherCatV1.11B39,2013-01-05 00:53:00,
2013-01-04 18:58:00,27.9,18.0,30.15,South,171,0.0,1.0,66,0.00,,,0.00,WeatherCatV1.11B39,2013-01-05 00:58:00,
2013-01-04 19:03:00,27.6,17.8,30.14,South,171,0.0,0.0,66,0.00,,,0.00,WeatherCatV1.11B39,2013-01-05 01:03:00,
2013-01-04 19:08:00,27.5,17.7,30.14,South,171,0.0,0.0,66,0.00,,,0.00,WeatherCatV1.11B39,2013-01-05 01:08:00,
2013-01-04 19:13:00,27.3,17.8,30.14,South,171,2.0,2.0,67,0.00,,,0.00,WeatherCatV1.11B39,2013-01-05 01:13:00,
2013-01-04 19:18:00,27.2,17.7,30.14,South,171,0.0,1.0,67,0.00,,,0.00,WeatherCatV1.11B39,2013-01-05 01:18:00,
2013-01-04 19:23:00,27.0,17.9,30.14,South,171,0.0,0.0,68,0.00,,,0.00,WeatherCatV1.11B39,2013-01-05 01:23:00,
2013-01-04 19:28:00,26.9,17.1,30.14,South,171,2.0,3.0,66,0.00,,,0.00,WeatherCatV1.11B39,2013-01-05 01:28:00,
2013-01-04 19:33:00,26.7,17.6,30.14,South,171,0.0,3.0,68,0.00,,,0.00,WeatherCatV1.11B39,2013-01-05 01:33:00,
2013-01-04 19:38:00,26.6,17.8,30.14,South,171,0.0,2.0,69,0.00,,,0.00,WeatherCatV1.11B39,2013-01-05 01:38:00,
2013-01-04 19:43:00,26.6,17.8,30.14,South,171,0.0,2.0,69,0.00,,,0.00,WeatherCatV1.11B39,2013-01-05 01:43:00,
2013-01-04 19:48:00,26.4,17.6,30.15,South,171,0.0,2.0,69,0.00,,,0.00,WeatherCatV1.11B39,2013-01-05 01:48:00,
2013-01-04 19:53:00,26.3,17.5,30.15,South,173,2.0,6.0,69,0.00,,,0.00,WeatherCatV1.11B39,2013-01-05 01:53:00,
2013-01-04 19:58:00,26.1,17.3,30.15,South,173,1.0,2.0,69,0.00,,,0.00,WeatherCatV1.11B39,2013-01-05 01:58:00,
2013-01-04 20:03:00,26.0,17.2,30.14,South,173,0.0,2.0,69,0.00,,,0.00,WeatherCatV1.11B39,2013-01-05 02:03:00,
2013-01-04 20:08:00,25.8,17.4,30.14,South,173,0.0,3.0,70,0.00,,,0.00,WeatherCatV1.11B39,2013-01-05 02:08:00,
2013-01-04 20:13:00,25.7,17.3,30.14,South,173,3.0,4.0,70,0.00,,,0.00,WeatherCatV1.11B39,2013-01-05 02:13:00,
2013-01-04 20:18:00,25.7,17.3,30.14,SSE,166,1.0,9.0,70,0.00,,,0.00,WeatherCatV1.11B39,2013-01-05 02:18:00,
2013-01-04 20:23:00,25.7,17.3,30.14,South,171,4.0,5.0,70,0.00,,,0.00,WeatherCatV1.11B39,2013-01-05 02:23:00,
2013-01-04 20:28:00,25.7,17.3,30.14,South,178,4.0,5.0,70,0.00,,,0.00,WeatherCatV1.11B39,2013-01-05 02:28:00,
2013-01-04 20:33:00,25.7,17.3,30.13,SSE,165,3.0,5.0,70,0.00,,,0.00,WeatherCatV1.11B39,2013-01-05 02:33:00,
2013-01-04 20:38:00,25.7,17.3,30.13,South,169,0.0,4.0,70,0.00,,,0.00,WeatherCatV1.11B39,2013-01-05 02:38:00,
2013-01-04 20:43:00,25.6,17.2,30.13,South,176,1.0,4.0,70,0.00,,,0.00,WeatherCatV1.11B39,2013-01-05 02:43:00,
2013-01-04 20:48:00,25.6,17.2,30.13,South,176,3.0,4.0,70,0.00,,,0.00,WeatherCatV1.11B39,2013-01-05 02:48:00,
2013-01-04 20:53:00,25.4,17.0,30.13,South,177,1.0,4.0,70,0.00,,,0.00,WeatherCatV1.11B39,2013-01-05 02:53:00,
2013-01-04 20:58:00,25.3,16.9,30.13,South,188,1.0,3.0,70,0.00,,,0.00,WeatherCatV1.11B39,2013-01-05 02:58:00,
2013-01-04 21:03:00,25.1,16.7,30.13,South,188,0.0,3.0,70,0.00,,,0.00,WeatherCatV1.11B39,2013-01-05 03:03:00,
2013-01-04 21:08:00,25.0,16.6,30.13,South,188,1.0,4.0,70,0.00,,,0.00,WeatherCatV1.11B39,2013-01-05 03:08:00,
2013-01-04 21:13:00,25.0,16.6,30.13,South,188,0.0,2.0,70,0.00,,,0.00,WeatherCatV1.11B39,2013-01-05 03:13:00,
2013-01-04 21:18:00,24.8,16.4,30.13,South,188,2.0,2.0,70,0.00,,,0.00,WeatherCatV1.11B39,2013-01-05 03:18:00,
2013-01-04 21:23:00,24.7,16.3,30.13,South,188,0.0,0.0,70,0.00,,,0.00,WeatherCatV1.11B39,2013-01-05 03:23:00,
2013-01-04 21:28:00,24.5,16.1,30.13,South,188,0.0,1.0,70,0.00,,,0.00,WeatherCatV1.11B39,2013-01-05 03:28:00,
2013-01-04 21:33:00,24.5,16.1,30.12,South,188,0.0,3.0,70,0.00,,,0.00,WeatherCatV1.11B39,2013-01-05 03:33:00,
2013-01-04 21:38:00,24.4,16.0,30.12,South,188,0.0,0.0,70,0.00,,,0.00,WeatherCatV1.11B39,2013-01-05 03:38:00,
2013-01-04 21:43:00,24.2,15.9,30.12,South,188,0.0,0.0,70,0.00,,,0.00,WeatherCatV1.11B39,2013-01-05 03:43:00,
2013-01-04 21:48:00,24.1,15.8,30.12,South,188,0.0,1.0,70,0.00,,,0.00,WeatherCatV1.11B39,2013-01-05 03:48:00,
2013-01-04 21:53:00,23.9,15.6,30.12,South,188,0.0,2.0,70,0.00,,,0.00,WeatherCatV1.11B39,2013-01-05 03:53:00,
2013-01-04 21:58:00,23.6,15.3,30.12,South,188,0.0,0.0,70,0.00,,,0.00,WeatherCatV1.11B39,2013-01-05 03:58:00,
2013-01-04 22:03:00,23.5,15.5,30.12,South,188,0.0,0.0,71,0.00,,,0.00,WeatherCatV1.11B39,2013-01-05 04:03:00,
2013-01-04 22:08:00,23.3,15.3,30.12,South,188,0.0,1.0,71,0.00,,,0.00,WeatherCatV1.11B39,2013-01-05 04:08:00,
2013-01-04 22:13:00,23.2,15.2,30.12,South,188,0.0,1.0,71,0.00,,,0.00,WeatherCatV1.11B39,2013-01-05 04:13:00,
2013-01-04 22:18:00,23.0,15.0,30.12,South,188,0.0,0.0,71,0.00,,,0.00,WeatherCatV1.11B39,2013-01-05 04:18:00,
2013-01-04 22:23:00,22.9,14.9,30.12,South,188,0.0,1.0,71,0.00,,,0.00,WeatherCatV1.11B39,2013-01-05 04:23:00,
2013-01-04 22:28:00,22.9,15.2,30.12,South,188,0.0,0.0,72,0.00,,,0.00,WeatherCatV1.11B39,2013-01-05 04:28:00,
2013-01-04 22:33:00,22.9,14.9,30.12,South,188,0.0,0.0,71,0.00,,,0.00,WeatherCatV1.11B39,2013-01-05 04:33:00,
2013-01-04 22:38:00,22.7,15.1,30.12,South,188,0.0,0.0,72,0.00,,,0.00,WeatherCatV1.11B39,2013-01-05 04:38:00,
2013-01-04 22:43:00,22.5,14.5,30.12,South,188,0.0,0.0,71,0.00,,,0.00,WeatherCatV1.11B39,2013-01-05 04:43:00,
2013-01-04 22:48:00,22.4,14.8,30.12,South,188,0.0,0.0,72,0.00,,,0.00,WeatherCatV1.11B39,2013-01-05 04:48:00,
2013-01-04 22:53:00,22.1,14.5,30.12,South,188,0.0,0.0,72,0.00,,,0.00,WeatherCatV1.11B39,2013-01-05 04:53:00,
2013-01-04 22:58:00,21.9,14.3,30.12,South,188,0.0,0.0,72,0.00,,,0.00,WeatherCatV1.11B39,2013-01-05 04:58:00,
2013-01-04 23:00:00,21.8,14.2,30.11,South,188,0.0,0.0,72,0.00,,,0.00,WeatherCatV1.11B39,2013-01-05 05:00:00,
2013-01-04 23:05:00,21.6,14.3,30.11,South,188,0.0,0.0,73,0.00,,,0.00,WeatherCatV1.11B39,2013-01-05 05:05:00,
2013-01-04 23:10:00,21.4,14.1,30.11,South,188,0.0,0.0,73,0.00,,,0.00,WeatherCatV1.11B39,2013-01-05 05:10:00,
2013-01-04 23:15:00,21.3,14.3,30.10,South,188,0.0,0.0,74,0.00,,,0.00,WeatherCatV1.11B39,2013-01-05 05:15:00,
2013-01-04 23:20:00,21.1,14.1,30.10,South,188,0.0,0.0,74,0.00,,,0.00,WeatherCatV1.11B39,2013-01-05 05:20:00,
2013-01-04 23:25:00,21.0,14.0,30.10,South,188,0.0,0.0,74,0.00,,,0.00,WeatherCatV1.11B39,2013-01-05 05:25:00,
2013-01-04 23:30:00,21.0,14.0,30.10,South,188,0.0,0.0,74,0.00,,,0.00,WeatherCatV1.11B39,2013-01-05 05:30:00,
2013-01-04 23:35:00,20.8,13.8,30.10,South,188,0.0,0.0,74,0.00,,,0.00,WeatherCatV1.11B39,2013-01-05 05:35:00,
2013-01-04 23:40:00,20.6,14.0,30.10,South,188,0.0,1.0,75,0.00,,,0.00,WeatherCatV1.11B39,2013-01-05 05:40:00,
2013-01-04 23:43:00,20.5,13.9,30.10,South,188,0.0,0.0,75,0.00,,,0.00,WeatherCatV1.11B39,2013-01-05 05:43:00,
2013-01-04 23:48:00,20.3,13.7,30.10,South,188,0.0,0.0,75,0.00,,,0.00,WeatherCatV1.11B39,2013-01-05 05:48:00,
2013-01-04 23:53:00,20.2,13.9,30.10,South,188,0.0,1.0,76,0.00,,,0.00,WeatherCatV1.11B39,2013-01-05 05:53:00,
2013-01-04 23:58:00,20.2,13.9,30.10,South,188,0.0,0.0,76,0.00,,,0.00,WeatherCatV1.11B39,2013-01-05 05:58:00,